createdAt,value
2023-06-30T00:02:10.498Z,1.88
2023-06-30T00:04:39.949Z,1.95
2023-06-30T00:07:09.949Z,1.63
2023-06-30T00:09:37.955Z,2.00
2023-06-30T00:12:06.791Z,1.88
2023-06-30T00:14:34.827Z,2.15
2023-06-30T00:17:02.783Z,2.00
2023-06-30T00:19:32.438Z,2.10
2023-06-30T00:22:03.310Z,1.83
2023-06-30T00:24:31.431Z,3.10
2023-06-30T00:26:59.403Z,2.03
2023-06-30T00:29:27.384Z,2.20
2023-06-30T00:31:56.501Z,1.88
2023-06-30T00:34:24.562Z,1.77
2023-06-30T00:36:54.063Z,1.98
2023-06-30T00:39:22.131Z,2.22
2023-06-30T00:41:50.135Z,2.47
2023-06-30T00:44:18.030Z,1.83
2023-06-30T00:46:46.475Z,2.00
2023-06-30T00:49:14.667Z,2.40
2023-06-30T00:51:42.856Z,2.40
2023-06-30T00:54:12.258Z,1.90
2023-06-30T00:56:40.320Z,2.20
2023-06-30T00:59:08.256Z,2.55
2023-06-30T01:01:41.121Z,2.38
2023-06-30T01:04:16.484Z,2.08
2023-06-30T01:06:55.353Z,2.40
2023-06-30T01:09:29.500Z,2.00
2023-06-30T01:11:58.013Z,2.42
2023-06-30T01:14:26.925Z,2.17
2023-06-30T01:16:56.186Z,2.50
2023-06-30T01:19:36.196Z,2.40
2023-06-30T01:22:10.272Z,2.30
2023-06-30T01:24:40.459Z,2.33
2023-06-30T01:27:08.849Z,2.10
2023-06-30T01:29:36.926Z,2.20
2023-06-30T01:32:05.231Z,2.17
2023-06-30T01:34:33.716Z,2.30
2023-06-30T01:37:01.669Z,2.20
2023-06-30T01:39:29.640Z,2.33
2023-06-30T01:41:59.125Z,2.47
2023-06-30T01:44:27.660Z,2.13
2023-06-30T01:46:55.767Z,2.60
2023-06-30T01:49:24.514Z,2.20
2023-06-30T01:51:55.180Z,2.55
2023-06-30T01:54:23.276Z,2.28
2023-06-30T01:56:51.951Z,1.88
2023-06-30T01:59:21.459Z,1.88
2023-06-30T02:01:49.659Z,1.83
2023-06-30T02:04:18.371Z,1.92
2023-06-30T02:06:46.376Z,1.90
2023-06-30T02:09:14.567Z,2.67
2023-06-30T02:11:42.697Z,2.20
2023-06-30T02:14:10.693Z,2.20
2023-06-30T02:16:40.069Z,2.20
2023-06-30T02:19:08.490Z,1.70
2023-06-30T02:21:36.458Z,2.58
2023-06-30T02:24:04.474Z,2.42
2023-06-30T02:26:32.451Z,2.20
2023-06-30T02:29:00.493Z,1.90
2023-06-30T02:31:28.673Z,2.15
2023-06-30T02:33:58.053Z,1.95
2023-06-30T02:36:26.439Z,2.00
2023-06-30T02:38:54.439Z,2.00
2023-06-30T02:41:22.580Z,1.90
2023-06-30T02:43:50.543Z,1.90
2023-06-30T02:46:18.526Z,2.30
2023-06-30T02:48:46.529Z,2.50
2023-06-30T02:51:15.959Z,2.00
2023-06-30T02:53:44.005Z,2.08
2023-06-30T02:56:11.976Z,2.03
2023-06-30T02:58:40.686Z,2.17
2023-06-30T03:01:09.564Z,2.33
2023-06-30T03:03:37.933Z,2.03
2023-06-30T03:06:06.468Z,1.80
2023-06-30T03:08:35.846Z,2.17
2023-06-30T03:11:03.816Z,2.05
2023-06-30T03:13:31.980Z,1.90
2023-06-30T03:16:00.195Z,1.90
2023-06-30T03:18:28.227Z,2.25
2023-06-30T03:20:56.199Z,2.15
2023-06-30T03:23:24.247Z,2.00
2023-06-30T03:25:53.691Z,1.73
2023-06-30T03:28:21.681Z,2.17
2023-06-30T03:30:49.735Z,1.90
2023-06-30T03:33:20.470Z,2.05
2023-06-30T03:35:49.399Z,2.55
2023-06-30T03:38:17.597Z,1.92
2023-06-30T03:40:45.686Z,1.83
2023-06-30T03:43:15.069Z,2.10
2023-06-30T03:45:43.424Z,2.13
2023-06-30T03:48:11.552Z,1.98
2023-06-30T03:50:43.204Z,2.13
2023-06-30T03:53:11.318Z,1.80
2023-06-30T03:55:39.303Z,2.08
2023-06-30T03:58:07.395Z,1.77
2023-06-30T04:00:36.752Z,1.92
2023-06-30T04:03:04.998Z,2.35
2023-06-30T04:05:35.588Z,2.05
2023-06-30T04:08:03.757Z,1.77
2023-06-30T04:10:31.912Z,1.67
2023-06-30T04:13:02.991Z,1.95
2023-06-30T04:15:30.984Z,2.00
2023-06-30T04:18:00.563Z,2.15
2023-06-30T04:20:28.677Z,1.73
2023-06-30T04:22:57.083Z,1.63
2023-06-30T04:25:25.080Z,1.55
2023-06-30T04:27:53.098Z,1.80
2023-06-30T04:30:21.105Z,1.98
2023-06-30T04:32:49.214Z,1.98
2023-06-30T04:35:19.873Z,1.90
2023-06-30T04:37:47.812Z,1.63
2023-06-30T04:40:15.892Z,1.85
2023-06-30T04:42:43.917Z,1.85
2023-06-30T04:45:16.290Z,1.83
2023-06-30T04:47:46.320Z,1.90
2023-06-30T04:50:14.372Z,2.00
2023-06-30T04:52:43.758Z,1.70
2023-06-30T04:55:12.150Z,1.60
2023-06-30T04:57:40.148Z,1.60
2023-06-30T05:00:12.187Z,1.42
2023-06-30T05:02:40.267Z,1.52
2023-06-30T05:05:11.605Z,1.45
2023-06-30T05:07:39.656Z,1.60
2023-06-30T05:10:10.331Z,1.73
2023-06-30T05:12:42.851Z,1.73
2023-06-30T05:15:14.004Z,1.38
2023-06-30T05:17:42.081Z,1.95
2023-06-30T05:20:11.409Z,1.70
2023-06-30T05:22:39.354Z,1.65
2023-06-30T05:25:09.783Z,1.60
2023-06-30T05:27:37.846Z,1.50
2023-06-30T05:30:07.072Z,1.70
2023-06-30T05:32:36.301Z,1.70
2023-06-30T05:35:04.506Z,1.90
2023-06-30T05:37:32.564Z,2.13
2023-06-30T05:40:00.535Z,2.17
2023-06-30T05:42:29.937Z,1.50
2023-06-30T05:44:57.938Z,1.50
2023-06-30T05:47:25.911Z,2.03
2023-06-30T05:49:55.846Z,1.80
2023-06-30T05:52:26.220Z,1.48
2023-06-30T05:54:54.343Z,1.80
2023-06-30T05:57:22.305Z,2.00
2023-06-30T05:59:54.212Z,1.48
2023-06-30T06:02:22.208Z,1.65
2023-06-30T06:04:52.803Z,1.65
2023-06-30T06:07:21.110Z,1.27
2023-06-30T06:09:49.260Z,1.80
2023-06-30T06:12:17.337Z,1.60
2023-06-30T06:14:45.473Z,1.35
2023-06-30T06:17:14.883Z,1.60
2023-06-30T06:19:42.928Z,1.45
2023-06-30T06:22:11.034Z,1.88
2023-06-30T06:24:39.043Z,1.63
2023-06-30T06:27:07.760Z,1.95
2023-06-30T06:29:39.171Z,1.40
2023-06-30T06:32:08.524Z,1.30
2023-06-30T06:34:40.644Z,1.60
2023-06-30T06:37:08.823Z,1.65
2023-06-30T06:39:36.863Z,1.52
2023-06-30T06:42:05.536Z,1.20
2023-06-30T06:44:33.612Z,1.38
2023-06-30T06:47:43.112Z,1.90
2023-06-30T06:50:12.649Z,1.60
2023-06-30T06:52:40.724Z,1.70
2023-06-30T06:55:11.683Z,1.65
2023-06-30T06:57:39.806Z,1.50
2023-06-30T07:00:09.758Z,2.15
2023-06-30T07:02:37.850Z,1.70
2023-06-30T07:05:06.643Z,1.65
2023-06-30T07:07:36.145Z,1.77
2023-06-30T07:10:04.296Z,1.40
2023-06-30T07:12:32.312Z,1.40
2023-06-30T07:15:00.365Z,1.80
2023-06-30T07:17:28.530Z,1.80
2023-06-30T07:19:56.582Z,1.90
2023-06-30T07:22:24.541Z,2.22
2023-06-30T07:24:53.923Z,1.40
2023-06-30T07:27:24.891Z,1.52
2023-06-30T07:29:52.940Z,1.15
2023-06-30T07:32:20.932Z,1.50
2023-06-30T07:34:48.989Z,1.75
2023-06-30T07:37:17.058Z,1.50
2023-06-30T07:39:47.860Z,1.58
2023-06-30T07:42:17.293Z,1.63
2023-06-30T07:44:45.254Z,1.42
2023-06-30T07:47:18.696Z,1.23
2023-06-30T07:49:46.805Z,1.77
2023-06-30T07:52:14.809Z,1.65
2023-06-30T07:54:43.645Z,1.80
2023-06-30T07:57:11.612Z,1.17
2023-06-30T07:59:41.024Z,1.77
2023-06-30T08:02:09.051Z,1.75
2023-06-30T08:04:39.352Z,1.50
2023-06-30T08:07:08.093Z,1.52
2023-06-30T08:09:36.217Z,1.33
2023-06-30T08:12:04.353Z,1.40
2023-06-30T08:14:32.444Z,1.58
2023-06-30T08:17:01.788Z,1.50
2023-06-30T08:19:47.628Z,1.60
2023-06-30T08:22:19.357Z,1.40
2023-06-30T08:24:50.509Z,1.88
2023-06-30T08:27:18.936Z,1.83
2023-06-30T08:29:47.090Z,1.67
2023-06-30T08:32:16.516Z,1.52
2023-06-30T08:34:45.034Z,1.73
2023-06-30T08:37:13.079Z,1.63
2023-06-30T08:39:41.066Z,0.98
2023-06-30T08:42:13.255Z,1.20
2023-06-30T08:47:16.283Z,1.25
2023-06-30T08:49:48.453Z,1.35
2023-06-30T08:54:46.010Z,1.50
2023-06-30T08:57:16.339Z,1.73
2023-06-30T08:59:44.643Z,1.20
2023-06-30T09:02:13.641Z,1.40
2023-06-30T09:04:42.894Z,1.17
2023-06-30T09:07:19.296Z,1.42
2023-06-30T09:09:47.903Z,1.55
2023-06-30T09:12:17.257Z,1.60
2023-06-30T09:14:50.083Z,1.80
2023-06-30T09:17:20.145Z,1.58
2023-06-30T09:19:48.901Z,1.55
2023-06-30T09:22:54.314Z,1.58
2023-06-30T09:25:07.610Z,1.63
2023-06-30T09:27:38.321Z,1.20
2023-06-30T09:30:09.946Z,1.63
2023-06-30T09:32:37.983Z,1.25
2023-06-30T09:35:18.254Z,1.25
2023-06-30T09:37:47.608Z,1.40
2023-06-30T09:40:17.151Z,1.42
2023-06-30T09:42:48.211Z,1.25
2023-06-30T09:45:16.770Z,1.47
2023-06-30T09:47:44.995Z,1.70
2023-06-30T09:50:13.197Z,1.38
2023-06-30T09:52:42.953Z,1.40
2023-06-30T09:55:13.590Z,1.60
2023-06-30T09:57:45.005Z,1.25
2023-06-30T10:00:25.936Z,1.52
2023-06-30T10:03:07.678Z,1.30
2023-06-30T10:05:35.796Z,1.10
2023-06-30T10:08:04.499Z,1.38
2023-06-30T10:10:33.979Z,1.80
2023-06-30T10:13:04.326Z,1.38
2023-06-30T10:15:33.003Z,1.60
2023-06-30T10:18:01.650Z,1.30
2023-06-30T10:20:46.427Z,1.30
2023-06-30T10:23:16.987Z,1.42
2023-06-30T10:25:47.019Z,1.83
2023-06-30T10:28:16.600Z,1.50
2023-06-30T10:30:45.066Z,1.40
2023-06-30T10:33:13.214Z,1.60
2023-06-30T10:35:42.402Z,1.20
2023-06-30T10:38:14.450Z,1.20
2023-06-30T10:40:43.056Z,1.30
2023-06-30T10:43:14.791Z,1.35
2023-06-30T10:46:09.740Z,1.20
2023-06-30T10:48:41.617Z,1.25
2023-06-30T10:51:14.024Z,1.40
2023-06-30T10:53:45.820Z,1.48
2023-06-30T10:56:14.127Z,1.42
2023-06-30T10:58:44.972Z,1.30
2023-06-30T11:01:16.341Z,1.50
2023-06-30T11:04:15.337Z,1.17
2023-06-30T11:06:47.851Z,1.38
2023-06-30T11:09:18.885Z,1.50
2023-06-30T11:11:50.969Z,1.20
2023-06-30T11:14:34.298Z,1.45
2023-06-30T11:17:04.379Z,1.33
2023-06-30T11:19:32.569Z,1.20
2023-06-30T11:22:26.701Z,1.20
2023-06-30T11:24:57.324Z,1.15
2023-06-30T11:27:30.132Z,1.42
2023-06-30T11:30:01.473Z,1.50
2023-06-30T11:32:30.873Z,1.23
2023-06-30T11:34:59.956Z,1.27
2023-06-30T11:37:28.746Z,1.67
2023-06-30T11:39:58.139Z,1.33
2023-06-30T11:42:27.254Z,1.42
2023-06-30T11:44:55.452Z,1.10
2023-06-30T11:47:24.917Z,1.25
2023-06-30T11:49:52.945Z,1.58
2023-06-30T11:52:21.344Z,1.17
2023-06-30T11:54:51.542Z,1.48
2023-06-30T11:57:19.587Z,1.27
2023-06-30T11:59:50.079Z,1.30
2023-06-30T12:02:18.086Z,1.50
2023-06-30T12:04:50.654Z,1.25
2023-06-30T12:07:18.971Z,1.20
2023-06-30T12:10:01.227Z,1.30
2023-06-30T12:14:57.736Z,1.02
2023-06-30T12:17:28.511Z,1.55
2023-06-30T12:19:57.951Z,1.48
2023-06-30T12:22:28.363Z,1.25
2023-06-30T12:24:57.561Z,1.33
2023-06-30T12:27:28.334Z,1.20
2023-06-30T12:30:00.448Z,1.50
2023-06-30T12:32:30.178Z,1.58
2023-06-30T12:35:07.159Z,1.35
2023-06-30T12:37:35.824Z,1.40
2023-06-30T12:40:04.675Z,1.80
2023-06-30T12:42:35.660Z,1.80
2023-06-30T12:45:04.605Z,1.38
2023-06-30T12:47:33.926Z,1.58
2023-06-30T12:50:03.684Z,1.73
2023-06-30T12:52:31.849Z,1.30
2023-06-30T12:54:59.930Z,1.30
2023-06-30T12:57:27.895Z,1.35
2023-06-30T12:59:55.921Z,1.33
2023-06-30T13:02:23.953Z,1.40
2023-06-30T13:04:54.857Z,1.42
2023-06-30T13:07:24.415Z,1.25
2023-06-30T13:09:52.522Z,1.90
2023-06-30T13:12:25.253Z,1.33
2023-06-30T13:14:56.077Z,1.50
2023-06-30T13:17:24.199Z,1.65
2023-06-30T13:19:52.369Z,1.50
2023-06-30T13:22:20.902Z,1.33
2023-06-30T13:24:50.945Z,1.20
2023-06-30T13:27:19.177Z,1.45
2023-06-30T13:29:47.785Z,1.50
2023-06-30T13:32:15.998Z,1.70
2023-06-30T13:34:45.284Z,1.40
2023-06-30T13:37:16.666Z,1.77
2023-06-30T13:39:44.707Z,1.50
2023-06-30T13:42:14.091Z,1.75
2023-06-30T13:47:12.752Z,1.63
2023-06-30T13:49:43.502Z,1.90
2023-06-30T13:52:11.542Z,1.80
2023-06-30T13:54:41.497Z,1.52
2023-06-30T13:57:09.618Z,1.33
2023-06-30T13:59:39.070Z,1.48
2023-06-30T14:02:07.649Z,1.58
2023-06-30T14:04:35.819Z,1.90
2023-06-30T14:07:05.774Z,1.67
2023-06-30T14:09:33.828Z,1.58
2023-06-30T14:12:01.923Z,1.80
2023-06-30T14:14:29.861Z,1.75
2023-06-30T14:16:59.681Z,1.60
2023-06-30T14:19:30.295Z,1.10
2023-06-30T14:21:59.373Z,1.73
2023-06-30T14:24:30.170Z,1.60
2023-06-30T14:26:59.586Z,2.05
2023-06-30T14:29:27.579Z,1.45
2023-06-30T14:31:55.694Z,1.88
2023-06-30T14:34:25.187Z,1.63
2023-06-30T14:36:53.193Z,1.55
2023-06-30T14:39:21.191Z,1.40
2023-06-30T14:42:01.384Z,1.52
2023-06-30T14:44:30.289Z,1.70
2023-06-30T14:47:03.912Z,1.33
2023-06-30T14:49:33.390Z,1.38
2023-06-30T14:52:01.416Z,1.77
2023-06-30T14:54:29.408Z,1.55
2023-06-30T14:56:57.447Z,1.50
2023-06-30T14:59:25.465Z,1.75
2023-06-30T15:01:55.371Z,1.42
2023-06-30T15:04:23.732Z,1.50
2023-06-30T15:06:53.100Z,1.70
2023-06-30T15:09:21.201Z,1.90
2023-06-30T15:11:49.519Z,1.40
2023-06-30T15:14:17.616Z,1.63
2023-06-30T15:16:45.679Z,1.60
2023-06-30T15:19:13.865Z,1.90
2023-06-30T15:21:42.028Z,1.67
2023-06-30T15:24:11.457Z,1.75
2023-06-30T15:26:39.507Z,1.60
2023-06-30T15:29:07.612Z,1.63
2023-06-30T15:31:35.676Z,1.60
2023-06-30T15:34:03.653Z,1.70
2023-06-30T15:36:31.620Z,1.63
2023-06-30T15:38:59.757Z,1.63
2023-06-30T15:41:29.132Z,1.70
2023-06-30T15:43:57.158Z,1.70
2023-06-30T15:46:28.242Z,1.83
2023-06-30T15:48:59.011Z,1.80
2023-06-30T15:51:26.994Z,1.65
2023-06-30T15:53:55.117Z,1.63
2023-06-30T15:56:23.731Z,2.03
2023-06-30T15:58:53.148Z,1.80
2023-06-30T16:01:21.297Z,1.85
2023-06-30T16:03:49.436Z,1.80
2023-06-30T16:06:17.706Z,2.00
2023-06-30T16:08:45.728Z,1.73
2023-06-30T16:11:13.876Z,1.70
2023-06-30T16:13:41.895Z,1.73
2023-06-30T16:16:11.471Z,1.63
2023-06-30T16:18:39.459Z,1.70
2023-06-30T16:21:08.724Z,1.63
2023-06-30T16:23:36.802Z,1.48
2023-06-30T16:26:04.826Z,1.90
2023-06-30T16:28:32.953Z,1.80
2023-06-30T16:31:01.069Z,1.63
2023-06-30T16:33:30.577Z,1.83
2023-06-30T16:35:58.923Z,1.83
2023-06-30T16:38:26.922Z,2.10
2023-06-30T16:40:55.014Z,1.98
2023-06-30T16:43:23.405Z,1.85
2023-06-30T16:45:51.646Z,2.00
2023-06-30T16:48:19.606Z,1.77
2023-06-30T16:50:51.787Z,1.98
2023-06-30T16:53:20.454Z,1.85
2023-06-30T16:55:49.527Z,1.80
2023-06-30T16:58:18.118Z,1.98
2023-06-30T17:00:46.248Z,1.88
2023-06-30T17:03:14.420Z,1.83
2023-06-30T17:05:42.483Z,1.95
2023-06-30T17:08:11.882Z,1.90
2023-06-30T17:10:44.532Z,1.90
2023-06-30T17:13:14.718Z,1.70
2023-06-30T17:15:42.806Z,1.95
2023-06-30T17:18:10.860Z,1.92
2023-06-30T17:20:38.928Z,1.80
2023-06-30T17:23:09.872Z,1.60
2023-06-30T17:25:39.264Z,2.17
2023-06-30T17:28:07.347Z,1.85
2023-06-30T17:30:35.358Z,1.80
2023-06-30T17:33:05.651Z,2.20
2023-06-30T17:35:33.929Z,1.88
2023-06-30T17:38:01.981Z,1.80
2023-06-30T17:40:30.079Z,1.98
2023-06-30T17:42:59.440Z,1.73
2023-06-30T17:47:58.101Z,1.80
2023-06-30T17:50:26.590Z,2.10
2023-06-30T17:52:55.472Z,1.83
2023-06-30T17:55:28.819Z,1.83
2023-06-30T17:57:57.034Z,1.70
2023-06-30T18:00:26.737Z,1.88
2023-06-30T18:02:54.984Z,2.00
2023-06-30T18:05:23.276Z,1.60
2023-06-30T18:07:51.362Z,1.83
2023-06-30T18:10:20.692Z,1.50
2023-06-30T18:12:48.714Z,1.83
2023-06-30T18:15:16.727Z,1.73
2023-06-30T18:17:46.138Z,1.83
2023-06-30T18:20:14.277Z,1.77
2023-06-30T18:22:42.318Z,1.90
2023-06-30T18:25:13.279Z,2.10
2023-06-30T18:27:41.442Z,1.58
2023-06-30T18:30:10.178Z,2.13
2023-06-30T18:32:38.495Z,2.03
2023-06-30T18:35:08.841Z,2.13
2023-06-30T18:37:36.836Z,2.10
2023-06-30T18:40:08.545Z,2.53
2023-06-30T18:42:36.556Z,2.25
2023-06-30T18:45:05.779Z,2.30
2023-06-30T18:47:34.173Z,2.28
2023-06-30T18:50:02.192Z,2.15
2023-06-30T18:52:31.789Z,1.92
2023-06-30T18:55:00.219Z,2.50
2023-06-30T18:57:28.163Z,2.40
2023-06-30T18:59:58.442Z,2.80
2023-06-30T19:02:29.317Z,2.53
2023-06-30T19:04:57.653Z,2.38
2023-06-30T19:07:26.071Z,2.30
2023-06-30T19:09:55.573Z,2.30
2023-06-30T19:12:23.659Z,2.50
2023-06-30T19:14:51.688Z,2.30
2023-06-30T19:17:19.804Z,2.50
2023-06-30T19:19:48.029Z,2.30
2023-06-30T19:22:16.378Z,2.30
2023-06-30T19:24:44.575Z,2.22
2023-06-30T19:27:14.014Z,2.30
2023-06-30T19:29:42.046Z,2.20
2023-06-30T19:32:10.074Z,1.90
2023-06-30T19:34:41.594Z,2.20
2023-06-30T19:37:09.805Z,2.22
2023-06-30T19:39:37.804Z,2.10
2023-06-30T19:42:06.537Z,2.10
2023-06-30T19:44:35.922Z,1.80
2023-06-30T19:47:04.052Z,1.73
2023-06-30T19:49:32.134Z,1.98
2023-06-30T19:52:00.324Z,1.73
2023-06-30T19:54:31.327Z,1.92
2023-06-30T19:56:59.413Z,1.77
2023-06-30T19:59:28.256Z,1.83
2023-06-30T20:02:00.782Z,1.80
2023-06-30T20:04:29.121Z,2.10
2023-06-30T20:06:57.183Z,1.70
2023-06-30T20:09:25.157Z,2.15
2023-06-30T20:11:53.205Z,1.85
2023-06-30T20:14:21.213Z,1.88
2023-06-30T20:16:49.347Z,1.83
2023-06-30T20:19:18.832Z,2.22
2023-06-30T20:21:46.912Z,1.85
2023-06-30T20:24:16.385Z,2.25
2023-06-30T20:26:44.429Z,2.08
2023-06-30T20:29:13.075Z,2.10
2023-06-30T20:31:41.202Z,1.95
2023-06-30T20:34:09.324Z,2.13
2023-06-30T20:36:38.750Z,1.98
2023-06-30T20:39:07.480Z,1.60
2023-06-30T20:41:38.016Z,2.20
2023-06-30T20:44:07.512Z,1.38
2023-06-30T20:46:35.908Z,1.52
2023-06-30T20:49:03.935Z,2.10
2023-06-30T20:51:33.116Z,1.65
2023-06-30T20:54:02.717Z,2.00
2023-06-30T20:56:30.707Z,1.95
2023-06-30T20:58:58.779Z,1.80
2023-06-30T21:01:29.547Z,1.73
2023-06-30T21:03:57.663Z,2.00
2023-06-30T21:06:27.519Z,1.90
2023-06-30T21:08:55.775Z,1.70
2023-06-30T21:11:25.681Z,2.20
2023-06-30T21:13:53.920Z,1.70
2023-06-30T21:16:22.004Z,1.98
2023-06-30T21:18:50.058Z,1.85
2023-06-30T21:21:18.197Z,1.98
2023-06-30T21:23:46.675Z,2.10
2023-06-30T21:26:14.889Z,1.80
2023-06-30T21:28:44.227Z,1.90
2023-06-30T21:31:12.214Z,1.95
2023-06-30T21:33:40.270Z,1.73
2023-06-30T21:36:08.406Z,2.00
2023-06-30T21:38:36.423Z,1.83
2023-06-30T21:41:04.455Z,1.80
2023-06-30T21:43:32.436Z,2.05
2023-06-30T21:46:12.018Z,2.05
2023-06-30T21:48:40.109Z,1.73
2023-06-30T21:51:09.352Z,1.58
2023-06-30T21:56:10.119Z,1.67
2023-06-30T21:58:41.246Z,1.52
2023-06-30T22:01:12.907Z,1.73
2023-06-30T22:03:41.113Z,1.77
2023-06-30T22:06:12.027Z,1.67
2023-06-30T22:08:40.020Z,2.10
2023-06-30T22:11:08.051Z,1.83
2023-06-30T22:13:37.480Z,1.90
2023-06-30T22:16:05.951Z,1.77
2023-06-30T22:18:35.721Z,1.50
2023-06-30T22:21:04.492Z,1.80
2023-06-30T22:23:32.564Z,1.60
2023-06-30T22:26:03.530Z,1.63
2023-06-30T22:28:34.461Z,1.52
2023-06-30T22:31:04.992Z,2.00
2023-06-30T22:33:33.079Z,1.95
2023-06-30T22:36:02.420Z,1.98
2023-06-30T22:38:30.409Z,1.80
2023-06-30T22:40:58.566Z,1.85
2023-06-30T22:43:29.344Z,1.52
2023-06-30T22:45:57.141Z,2.05
2023-06-30T22:48:25.185Z,1.88
2023-06-30T22:50:53.122Z,1.73
2023-06-30T22:53:22.987Z,1.80
2023-06-30T22:55:51.233Z,1.77
2023-06-30T22:58:21.982Z,2.03
2023-06-30T23:00:49.987Z,2.08
2023-06-30T23:03:18.066Z,1.73
2023-06-30T23:05:46.039Z,1.55
2023-06-30T23:08:14.380Z,1.92
2023-06-30T23:10:43.743Z,1.70
2023-06-30T23:13:11.755Z,1.90
2023-06-30T23:15:39.822Z,1.80
2023-06-30T23:18:09.719Z,1.88
2023-06-30T23:20:37.879Z,1.85
2023-06-30T23:23:08.240Z,2.05
2023-06-30T23:25:38.590Z,1.60
2023-06-30T23:28:08.029Z,1.80
2023-06-30T23:30:36.472Z,2.10
2023-06-30T23:33:04.985Z,1.95
2023-06-30T23:35:33.150Z,2.00
2023-06-30T23:38:04.086Z,1.80
2023-06-30T23:40:32.111Z,2.05
2023-06-30T23:43:01.099Z,2.10
2023-06-30T23:45:30.386Z,2.03
2023-06-30T23:47:58.533Z,1.75
2023-06-30T23:50:29.105Z,1.90
2023-06-30T23:52:57.038Z,2.03
2023-06-30T23:55:25.089Z,2.30
2023-06-30T23:57:53.056Z,1.90
